Mt Bomar Mars — 9HCM9 — position and weather

sailwx.info

Track history (hours):
 
Tides and Currents Weather Stations Pressure Air Temp Water Temp Dewpoint Dewpoint Depression Visibility Wind Speed Wind Dir Waves Ship Positions

Mt Bomar Mars

Last reported at 2017-Oct-23 02:30 UTC. Time now 2017-Oct-23 02:53 UTC.
Position N 55°51' E 015°51'.

Length 107 m; draft 6.5 m.

Type: Ship (hazmat cat C). MMSI: 256784000.

Date/timePositionNaut miles runAvg speedWind from/ knotsBaromVisibWave heightAir tempDewpointWater temp
2017-Oct-23 02:30N 55°51' E 015°51'713.3
2017-Oct-23 02:00N 55°54' E 016°01'713.2
2017-Oct-23 01:30N 55°58' E 016°11'713.2
2017-Oct-23 01:01N 56°01' E 016°22'713.4
2017-Oct-23 00:30N 56°04' E 016°32'713.2
2017-Oct-23 00:00N 56°08' E 016°43'15011.9
2017-Oct-22 11:21N 58°36' E 017°30'411.3
2017-Oct-22 11:00N 58°37' E 017°23'611.2
2017-Oct-22 10:30N 58°37' E 017°12'611.9
2017-Oct-22 10:00N 58°37' E 017°01'612.1
2017-Oct-22 09:30N 58°37' E 016°49'612.2
2017-Oct-22 09:00N 58°38' E 016°38'510.9
2017-Oct-22 08:31N 58°39' E 016°28'611.2
2017-Oct-22 08:00N 58°38' E 016°17'1 2.4
2017-Oct-22 07:29N 58°37' E 016°15'0 0.0
2017-Oct-21 17:10N 58°37' E 016°15'0 1.2
2017-Oct-21 17:00N 58°37' E 016°15'3 6.0
2017-Oct-21 16:30N 58°38' E 016°21'4 7.6
2017-Oct-21 16:00N 58°39' E 016°28'612.2
2017-Oct-21 15:30N 58°38' E 016°39'15510.8
2017-Oct-21 01:10N 56°03' E 016°45'212.8
2017-Oct-21 01:00N 56°02' E 016°42'612.9
2017-Oct-21 00:30N 55°59' E 016°32'613.0
2017-Oct-21 00:00N 55°56' E 016°21'612.9
2017-Oct-20 23:30N 55°53' E 016°11'612.9
2017-Oct-20 23:00N 55°50' E 016°01'612.8
2017-Oct-20 22:30N 55°46' E 015°51'612.8
2017-Oct-20 22:00N 55°44' E 015°41'713.0
2017-Oct-20 21:30N 55°40' E 015°31'713.2
2017-Oct-20 21:00N 55°37' E 015°21'712.9
2017-Oct-20 20:30N 55°34' E 015°11'813.1
2017-Oct-20 19:55N 55°30' E 014°59'513.4
2017-Oct-20 19:30N 55°28' E 014°50'713.4
2017-Oct-20 19:01N 55°24' E 014°40'713.2
2017-Oct-20 18:30N 55°19' E 014°32'713.3
2017-Oct-20 18:00N 55°14' E 014°25'813.6
2017-Oct-20 17:27N 55°08' E 014°17'1713.0
2017-Oct-20 16:07N 54°58' E 013°52'4813.0
2017-Oct-20 12:24N 54°41' E 012°33'1112.9
2017-Oct-20 11:35N 54°35' E 012°18'112.3
2017-Oct-20 11:31N 54°35' E 012°17'912.6
2017-Oct-20 10:46N 54°26' E 012°11'312.3
2017-Oct-20 10:30N 54°24' E 012°06'912.4
2017-Oct-20 09:48N 54°25' E 011°52'512.0
2017-Oct-20 09:23N 54°26' E 011°43'712.4
2017-Oct-20 08:48N 54°29' E 011°32'412.2
2017-Oct-20 08:30N 54°31' E 011°26'611.9
2017-Oct-20 08:00N 54°33' E 011°17'611.8
2017-Oct-20 07:30N 54°36' E 011°08'611.6
2017-Oct-20 07:00N 54°39' E 010°60'611.5
2017-Oct-20 06:30N 54°43' E 010°52'510.9
2017-Oct-20 06:00N 54°48' E 010°52'510.7
2017-Oct-20 05:30N 54°53' E 010°53'611.2
2017-Oct-20 05:00N 54°58' E 010°58'611.0
2017-Oct-20 04:30N 55°03' E 011°02'611.2
2017-Oct-20 04:00N 55°09' E 011°03'610.9
2017-Oct-20 03:30N 55°14' E 011°06'  
2017-Oct-17 19:55N 56°59' E 010°20'410.6
2017-Oct-17 19:30N 56°60' E 010°12'611.5
2017-Oct-17 19:00N 57°03' E 010°04'3 6.2
2017-Oct-17 18:30N 57°04' E 009°58'0 0.1
2017-Oct-17 18:00N 57°04' E 009°58'0 0.0
2017-Oct-17 17:30N 57°04' E 009°58'0 0.0
2017-Oct-17 17:00N 57°04' E 009°58'0 0.0
2017-Oct-17 16:30N 57°04' E 009°58'0 0.0
2017-Oct-17 16:00N 57°04' E 009°58'0 0.0
2017-Oct-17 15:30N 57°04' E 009°58'0 0.0
2017-Oct-17 14:45N 57°04' E 009°58'0 0.0
2017-Oct-17 14:30N 57°04' E 009°58'0 0.0
2017-Oct-17 14:00N 57°04' E 009°58'0 0.0
2017-Oct-17 13:30N 57°04' E 009°58'0 0.0
2017-Oct-17 13:00N 57°04' E 009°58'0 0.0
2017-Oct-17 12:30N 57°04' E 009°58'0 0.0
2017-Oct-17 12:00N 57°04' E 009°58'1 2.7
2017-Oct-17 11:31N 57°05' E 009°59'510.0
2017-Oct-17 11:00N 57°02' E 010°07'510.8
2017-Oct-17 10:30N 56°59' E 010°15'4510.1
2017-Oct-17 06:06N 57°01' E 011°37'112.5
2017-Oct-17 06:00N 57°02' E 011°38'611.8
2017-Oct-17 05:30N 57°08' E 011°38'712.9
2017-Oct-17 05:00N 57°14' E 011°33'612.6
2017-Oct-17 04:30N 57°20' E 011°30'612.4
2017-Oct-17 04:00N 57°26' E 011°26'612.3
2017-Oct-17 03:31N 57°30' E 011°19'612.7
2017-Oct-17 03:01N 57°35' E 011°10'612.6
2017-Oct-17 02:30N 57°39' E 011°01'612.7
2017-Oct-17 02:01N 57°43' E 010°53'712.7
2017-Oct-17 01:30N 57°48' E 010°43'612.9
2017-Oct-17 01:00N 57°48' E 010°32'19012.6
2017-Oct-16 09:56N 55°29' E 006°35'613.1
2017-Oct-16 09:30N 55°24' E 006°33'713.3
2017-Oct-16 08:59N 55°17' E 006°33'713.2
2017-Oct-16 08:29N 55°10' E 006°32'1412.7
2017-Oct-16 07:20N 54°56' E 006°35'412.7
2017-Oct-16 07:00N 54°52' E 006°39'712.5
2017-Oct-16 06:27N 54°47' E 006°46'7111.7
2017-Oct-16 00:24N 54°00' E 008°18'614.6
2017-Oct-15 23:58N 53°59' E 008°28'714.5
2017-Oct-15 23:30N 53°57' E 008°39'713.8
2017-Oct-15 23:00N 53°51' E 008°46'612.1
2017-Oct-15 22:30N 53°51' E 008°56'0 0.6
2017-Oct-15 21:59N 53°51' E 008°57'0 0.0
2017-Oct-15 21:26N 53°51' E 008°57'0 0.0
2017-Oct-15 20:56N 53°51' E 008°57'0 0.0
2017-Oct-15 20:29N 53°51' E 008°57'0 0.0
2017-Oct-15 19:59N 53°51' E 008°57'0 0.0
2017-Oct-15 19:29N 53°51' E 008°57'1 1.6
2017-Oct-15 19:00N 53°51' E 008°58'4 7.4
2017-Oct-15 18:31N 53°50' E 008°52'714.0
2017-Oct-15 18:00N 53°54' E 008°42'714.4
2017-Oct-15 17:30N 53°58' E 008°32'814.9
2017-Oct-15 16:59N 53°60' E 008°19'8712.4
2017-Oct-15 10:01N 53°40' E 005°56'1112.1
2017-Oct-15 09:05N 53°36' E 005°38'312.0
2017-Oct-15 08:50N 53°36' E 005°33'911.9
2017-Oct-15 08:04N 53°33' E 005°18'112.0
2017-Oct-15 07:58N 53°32' E 005°16'612.0
2017-Oct-15 07:31N 53°31' E 005°07'612.1
2017-Oct-15 07:01N 53°28' E 004°58'712.2
2017-Oct-15 06:25N 53°25' E 004°47'2312.1
2017-Oct-15 04:30N 53°06' E 004°27'612.4
2017-Oct-15 04:00N 53°00' E 004°21'612.5
2017-Oct-15 03:31N 52°55' E 004°17'612.5
2017-Oct-15 03:01N 52°50' E 004°12'612.7
2017-Oct-15 02:30N 52°45' E 004°05'712.9
2017-Oct-15 01:59N 52°40' E 003°57'1013.2
2017-Oct-15 01:15N 52°32' E 003°47'513.3
2017-Oct-15 00:53N 52°29' E 003°42'613.5
2017-Oct-15 00:28N 52°25' E 003°35'613.6
2017-Oct-15 00:00N 52°20' E 003°28'713.7
2017-Oct-14 23:29N 52°15' E 003°19'713.8
2017-Oct-14 23:00N 52°11' E 003°11'714.0
2017-Oct-14 22:29N 52°06' E 003°03'814.2
2017-Oct-14 21:55N 51°59' E 002°55'1114.2
2017-Oct-14 21:09N 51°51' E 002°44'214.2
2017-Oct-14 21:00N 51°50' E 002°41'814.2
2017-Oct-14 20:25N 51°43' E 002°33'614.1
2017-Oct-14 20:00N 51°39' E 002°27'713.9
2017-Oct-14 19:30N 51°33' E 002°20'713.6
2017-Oct-14 19:00N 51°28' E 002°13'713.1
2017-Oct-14 18:31N 51°23' E 002°07'613.0
2017-Oct-14 18:01N 51°16' E 002°06'612.6
2017-Oct-14 17:30N 51°12' E 001°58'612.8
2017-Oct-14 17:01N 51°09' E 001°50'612.5
2017-Oct-14 16:30N 51°04' E 001°42'612.2
2017-Oct-14 16:00N 50°60' E 001°36'611.9
2017-Oct-14 15:30N 50°55' E 001°30'7811.3
2017-Oct-14 08:39N 50°17' W 000°17'211.8
2017-Oct-14 08:30N 50°16' W 000°20'1511.7
2017-Oct-14 07:15N 50°12' W 000°41'312.1
2017-Oct-14 06:59N 50°11' W 000°46'612.3
2017-Oct-14 06:31N 50°10' W 000°55'812.7
2017-Oct-14 05:55N 50°08' W 001°07'513.2
2017-Oct-14 05:31N 50°07' W 001°15'713.7
2017-Oct-14 05:00N 50°05' W 001°25'714.1
2017-Oct-14 04:30N 50°02' W 001°35'714.6
2017-Oct-14 04:00N 50°00' W 001°46'715.0
2017-Oct-14 03:31N 49°58' W 001°57'2415.0
2017-Oct-14 01:53N 49°52' W 002°34'614.4
2017-Oct-14 01:28N 49°50' W 002°43'714.2
2017-Oct-14 01:00N 49°47' W 002°52'814.0
2017-Oct-14 00:26N 49°43' W 003°03'613.9
2017-Oct-13 23:59N 49°41' W 003°12'713.8
2017-Oct-13 23:30N 49°38' W 003°21'1813.6
2017-Oct-13 22:10N 49°28' W 003°45'313.5
2017-Oct-13 21:55N 49°27' W 003°49'1813.3
2017-Oct-13 20:33N 49°18' W 004°14'1013.1
2017-Oct-13 19:49N 49°13' W 004°27'513.0
2017-Oct-13 19:25N 49°11' W 004°33'4612.5
2017-Oct-13 15:44N 48°47' W 005°34'2412.1
2017-Oct-13 13:43N 48°25' W 005°49'1012.1
2017-Oct-13 12:53N 48°15' W 005°45'1212.3
2017-Oct-13 11:53N 48°03' W 005°40'1512.2
2017-Oct-13 10:38N 47°49' W 005°34'9412.7
2017-Oct-13 03:14N 46°19' W 004°55'312.7
2017-Oct-13 03:00N 46°16' W 004°54'612.3
2017-Oct-13 02:31N 46°10' W 004°51'  
Track history (hours):
 
Tides and Currents Weather Stations Pressure Air Temp Water Temp Dewpoint Dewpoint Depression Visibility Wind Speed Wind Dir Waves Ship Positions

Mt Bomar Mars

Last reported at 2017-Oct-23 02:30 UTC. Time now 2017-Oct-23 02:53 UTC.
Position N 55°51' E 015°51'.

Length 107 m; draft 6.5 m.

Type: Ship (hazmat cat C). MMSI: 256784000.

Date/timePositionNaut miles runAvg speedWind from/ knotsBaromVisibWave heightAir tempDewpointWater temp
2017-Oct-23 02:30N 55°51' E 015°51'713.3
2017-Oct-23 02:00N 55°54' E 016°01'713.2
2017-Oct-23 01:30N 55°58' E 016°11'713.2
2017-Oct-23 01:01N 56°01' E 016°22'713.4
2017-Oct-23 00:30N 56°04' E 016°32'713.2
2017-Oct-23 00:00N 56°08' E 016°43'15011.9
2017-Oct-22 11:21N 58°36' E 017°30'411.3
2017-Oct-22 11:00N 58°37' E 017°23'611.2
2017-Oct-22 10:30N 58°37' E 017°12'611.9
2017-Oct-22 10:00N 58°37' E 017°01'612.1
2017-Oct-22 09:30N 58°37' E 016°49'612.2
2017-Oct-22 09:00N 58°38' E 016°38'510.9
2017-Oct-22 08:31N 58°39' E 016°28'611.2
2017-Oct-22 08:00N 58°38' E 016°17'1 2.4
2017-Oct-22 07:29N 58°37' E 016°15'0 0.0
2017-Oct-21 17:10N 58°37' E 016°15'0 1.2
2017-Oct-21 17:00N 58°37' E 016°15'3 6.0
2017-Oct-21 16:30N 58°38' E 016°21'4 7.6
2017-Oct-21 16:00N 58°39' E 016°28'612.2
2017-Oct-21 15:30N 58°38' E 016°39'15510.8
2017-Oct-21 01:10N 56°03' E 016°45'212.8
2017-Oct-21 01:00N 56°02' E 016°42'612.9
2017-Oct-21 00:30N 55°59' E 016°32'613.0
2017-Oct-21 00:00N 55°56' E 016°21'612.9
2017-Oct-20 23:30N 55°53' E 016°11'612.9
2017-Oct-20 23:00N 55°50' E 016°01'612.8
2017-Oct-20 22:30N 55°46' E 015°51'612.8
2017-Oct-20 22:00N 55°44' E 015°41'713.0
2017-Oct-20 21:30N 55°40' E 015°31'713.2
2017-Oct-20 21:00N 55°37' E 015°21'712.9
2017-Oct-20 20:30N 55°34' E 015°11'813.1
2017-Oct-20 19:55N 55°30' E 014°59'513.4
2017-Oct-20 19:30N 55°28' E 014°50'713.4
2017-Oct-20 19:01N 55°24' E 014°40'713.2
2017-Oct-20 18:30N 55°19' E 014°32'713.3
2017-Oct-20 18:00N 55°14' E 014°25'813.6
2017-Oct-20 17:27N 55°08' E 014°17'1713.0
2017-Oct-20 16:07N 54°58' E 013°52'4813.0
2017-Oct-20 12:24N 54°41' E 012°33'1112.9
2017-Oct-20 11:35N 54°35' E 012°18'112.3
2017-Oct-20 11:31N 54°35' E 012°17'912.6
2017-Oct-20 10:46N 54°26' E 012°11'312.3
2017-Oct-20 10:30N 54°24' E 012°06'912.4
2017-Oct-20 09:48N 54°25' E 011°52'512.0
2017-Oct-20 09:23N 54°26' E 011°43'712.4
2017-Oct-20 08:48N 54°29' E 011°32'412.2
2017-Oct-20 08:30N 54°31' E 011°26'611.9
2017-Oct-20 08:00N 54°33' E 011°17'611.8
2017-Oct-20 07:30N 54°36' E 011°08'611.6
2017-Oct-20 07:00N 54°39' E 010°60'611.5
2017-Oct-20 06:30N 54°43' E 010°52'510.9
2017-Oct-20 06:00N 54°48' E 010°52'510.7
2017-Oct-20 05:30N 54°53' E 010°53'611.2
2017-Oct-20 05:00N 54°58' E 010°58'611.0
2017-Oct-20 04:30N 55°03' E 011°02'611.2
2017-Oct-20 04:00N 55°09' E 011°03'610.9
2017-Oct-20 03:30N 55°14' E 011°06'  
2017-Oct-17 19:55N 56°59' E 010°20'410.6
2017-Oct-17 19:30N 56°60' E 010°12'611.5
2017-Oct-17 19:00N 57°03' E 010°04'3 6.2
2017-Oct-17 18:30N 57°04' E 009°58'0 0.1
2017-Oct-17 18:00N 57°04' E 009°58'0 0.0
2017-Oct-17 17:30N 57°04' E 009°58'0 0.0
2017-Oct-17 17:00N 57°04' E 009°58'0 0.0
2017-Oct-17 16:30N 57°04' E 009°58'0 0.0
2017-Oct-17 16:00N 57°04' E 009°58'0 0.0
2017-Oct-17 15:30N 57°04' E 009°58'0 0.0
2017-Oct-17 14:45N 57°04' E 009°58'0 0.0
2017-Oct-17 14:30N 57°04' E 009°58'0 0.0
2017-Oct-17 14:00N 57°04' E 009°58'0 0.0
2017-Oct-17 13:30N 57°04' E 009°58'0 0.0
2017-Oct-17 13:00N 57°04' E 009°58'0 0.0
2017-Oct-17 12:30N 57°04' E 009°58'0 0.0
2017-Oct-17 12:00N 57°04' E 009°58'1 2.7
2017-Oct-17 11:31N 57°05' E 009°59'510.0
2017-Oct-17 11:00N 57°02' E 010°07'510.8
2017-Oct-17 10:30N 56°59' E 010°15'4510.1
2017-Oct-17 06:06N 57°01' E 011°37'112.5
2017-Oct-17 06:00N 57°02' E 011°38'611.8
2017-Oct-17 05:30N 57°08' E 011°38'712.9
2017-Oct-17 05:00N 57°14' E 011°33'612.6
2017-Oct-17 04:30N 57°20' E 011°30'612.4
2017-Oct-17 04:00N 57°26' E 011°26'612.3
2017-Oct-17 03:31N 57°30' E 011°19'612.7
2017-Oct-17 03:01N 57°35' E 011°10'612.6
2017-Oct-17 02:30N 57°39' E 011°01'612.7
2017-Oct-17 02:01N 57°43' E 010°53'712.7
2017-Oct-17 01:30N 57°48' E 010°43'612.9
2017-Oct-17 01:00N 57°48' E 010°32'19012.6
2017-Oct-16 09:56N 55°29' E 006°35'613.1
2017-Oct-16 09:30N 55°24' E 006°33'713.3
2017-Oct-16 08:59N 55°17' E 006°33'713.2
2017-Oct-16 08:29N 55°10' E 006°32'1412.7
2017-Oct-16 07:20N 54°56' E 006°35'412.7
2017-Oct-16 07:00N 54°52' E 006°39'712.5
2017-Oct-16 06:27N 54°47' E 006°46'7111.7
2017-Oct-16 00:24N 54°00' E 008°18'614.6
2017-Oct-15 23:58N 53°59' E 008°28'714.5
2017-Oct-15 23:30N 53°57' E 008°39'713.8
2017-Oct-15 23:00N 53°51' E 008°46'612.1
2017-Oct-15 22:30N 53°51' E 008°56'0 0.6
2017-Oct-15 21:59N 53°51' E 008°57'0 0.0
2017-Oct-15 21:26N 53°51' E 008°57'0 0.0
2017-Oct-15 20:56N 53°51' E 008°57'0 0.0
2017-Oct-15 20:29N 53°51' E 008°57'0 0.0
2017-Oct-15 19:59N 53°51' E 008°57'0 0.0
2017-Oct-15 19:29N 53°51' E 008°57'1 1.6
2017-Oct-15 19:00N 53°51' E 008°58'4 7.4
2017-Oct-15 18:31N 53°50' E 008°52'714.0
2017-Oct-15 18:00N 53°54' E 008°42'714.4
2017-Oct-15 17:30N 53°58' E 008°32'814.9
2017-Oct-15 16:59N 53°60' E 008°19'8712.4
2017-Oct-15 10:01N 53°40' E 005°56'1112.1
2017-Oct-15 09:05N 53°36' E 005°38'312.0
2017-Oct-15 08:50N 53°36' E 005°33'911.9
2017-Oct-15 08:04N 53°33' E 005°18'112.0
2017-Oct-15 07:58N 53°32' E 005°16'612.0
2017-Oct-15 07:31N 53°31' E 005°07'612.1
2017-Oct-15 07:01N 53°28' E 004°58'712.2
2017-Oct-15 06:25N 53°25' E 004°47'2312.1
2017-Oct-15 04:30N 53°06' E 004°27'612.4
2017-Oct-15 04:00N 53°00' E 004°21'612.5
2017-Oct-15 03:31N 52°55' E 004°17'612.5
2017-Oct-15 03:01N 52°50' E 004°12'612.7
2017-Oct-15 02:30N 52°45' E 004°05'712.9
2017-Oct-15 01:59N 52°40' E 003°57'1013.2
2017-Oct-15 01:15N 52°32' E 003°47'513.3
2017-Oct-15 00:53N 52°29' E 003°42'613.5
2017-Oct-15 00:28N 52°25' E 003°35'613.6
2017-Oct-15 00:00N 52°20' E 003°28'713.7
2017-Oct-14 23:29N 52°15' E 003°19'713.8
2017-Oct-14 23:00N 52°11' E 003°11'714.0
2017-Oct-14 22:29N 52°06' E 003°03'814.2
2017-Oct-14 21:55N 51°59' E 002°55'1114.2
2017-Oct-14 21:09N 51°51' E 002°44'214.2
2017-Oct-14 21:00N 51°50' E 002°41'814.2
2017-Oct-14 20:25N 51°43' E 002°33'614.1
2017-Oct-14 20:00N 51°39' E 002°27'713.9
2017-Oct-14 19:30N 51°33' E 002°20'713.6
2017-Oct-14 19:00N 51°28' E 002°13'713.1
2017-Oct-14 18:31N 51°23' E 002°07'613.0
2017-Oct-14 18:01N 51°16' E 002°06'612.6
2017-Oct-14 17:30N 51°12' E 001°58'612.8
2017-Oct-14 17:01N 51°09' E 001°50'612.5
2017-Oct-14 16:30N 51°04' E 001°42'612.2
2017-Oct-14 16:00N 50°60' E 001°36'611.9
2017-Oct-14 15:30N 50°55' E 001°30'7811.3
2017-Oct-14 08:39N 50°17' W 000°17'211.8
2017-Oct-14 08:30N 50°16' W 000°20'1511.7
2017-Oct-14 07:15N 50°12' W 000°41'312.1
2017-Oct-14 06:59N 50°11' W 000°46'612.3
2017-Oct-14 06:31N 50°10' W 000°55'812.7
2017-Oct-14 05:55N 50°08' W 001°07'513.2
2017-Oct-14 05:31N 50°07' W 001°15'713.7
2017-Oct-14 05:00N 50°05' W 001°25'714.1
2017-Oct-14 04:30N 50°02' W 001°35'714.6
2017-Oct-14 04:00N 50°00' W 001°46'715.0
2017-Oct-14 03:31N 49°58' W 001°57'2415.0
2017-Oct-14 01:53N 49°52' W 002°34'614.4
2017-Oct-14 01:28N 49°50' W 002°43'714.2
2017-Oct-14 01:00N 49°47' W 002°52'814.0
2017-Oct-14 00:26N 49°43' W 003°03'613.9
2017-Oct-13 23:59N 49°41' W 003°12'713.8
2017-Oct-13 23:30N 49°38' W 003°21'1813.6
2017-Oct-13 22:10N 49°28' W 003°45'313.5
2017-Oct-13 21:55N 49°27' W 003°49'1813.3
2017-Oct-13 20:33N 49°18' W 004°14'1013.1
2017-Oct-13 19:49N 49°13' W 004°27'513.0
2017-Oct-13 19:25N 49°11' W 004°33'4612.5
2017-Oct-13 15:44N 48°47' W 005°34'2412.1
2017-Oct-13 13:43N 48°25' W 005°49'1012.1
2017-Oct-13 12:53N 48°15' W 005°45'1212.3
2017-Oct-13 11:53N 48°03' W 005°40'1512.2
2017-Oct-13 10:38N 47°49' W 005°34'9412.7
2017-Oct-13 03:14N 46°19' W 004°55'312.7
2017-Oct-13 03:00N 46°16' W 004°54'612.3
2017-Oct-13 02:31N 46°10' W 004°51'  

Dump ship's entire track history